Time;durP1;ratioP1;P1;durP2;ratioP2;P2;SDS_P1;SDS_P2;PMS_P1;PMS_P2;Temp;Humidity;BMP_temperature;BMP_pressure;BME280_temperature;BME280_humidity;BME280_pressure;Samples;Min_cycle;Max_cycle;Signal;HPM_P1;HPM_P2
2022/08/29 00:01:13;;;;;;;11.45;7.65;;;;;;;17.67;100.00;96762.88;5066284;28;20032;-67
2022/08/29 00:03:40;;;;;;;11.90;7.88;;;;;;;17.59;100.00;96762.13;5070467;28;20085;-66
2022/08/29 00:06:05;;;;;;;12.45;6.97;;;;;;;17.54;100.00;96768.16;5070675;28;20029;-66
2022/08/29 00:08:31;;;;;;;11.40;7.60;;;;;;;17.51;100.00;96766.19;5068721;28;20033;-67
2022/08/29 00:10:57;;;;;;;11.70;7.07;;;;;;;17.37;100.00;96767.88;5070637;28;20067;-66
2022/08/29 00:13:22;;;;;;;11.15;8.15;;;;;;;17.32;100.00;96771.13;5073282;28;20117;-65
2022/08/29 00:15:48;;;;;;;9.88;8.10;;;;;;;17.22;100.00;96765.69;5071467;28;20640;-67
2022/08/29 00:18:15;;;;;;;11.20;7.50;;;;;;;17.19;100.00;96772.81;5074541;28;20604;-68
2022/08/29 00:20:42;;;;;;;13.10;8.35;;;;;;;17.13;100.00;96771.69;5071530;28;20085;-66
2022/08/29 00:23:08;;;;;;;13.80;8.25;;;;;;;17.08;100.00;96769.34;5074299;28;20497;-66
2022/08/29 00:25:34;;;;;;;12.85;8.52;;;;;;;17.06;100.00;96767.00;5074541;28;20474;-65
2022/08/29 00:27:59;;;;;;;16.58;8.18;;;;;;;17.08;100.00;96780.41;5075103;28;20119;-65
2022/08/29 00:30:25;;;;;;;13.27;8.77;;;;;;;17.04;100.00;96777.69;5074696;28;20040;-66
2022/08/29 00:32:51;;;;;;;11.07;8.43;;;;;;;17.08;100.00;96772.13;5072552;28;20036;-67
2022/08/29 00:35:21;;;;;;;15.43;8.43;;;;;;;17.05;100.00;96767.38;5087957;28;20267;-67
2022/08/29 00:37:47;;;;;;;10.98;7.88;;;;;;;16.99;100.00;96770.59;5076741;28;20032;-67
2022/08/29 00:40:16;;;;;;;13.85;8.57;;;;;;;16.94;100.00;96764.72;5089823;28;20600;-66
2022/08/29 00:42:43;;;;;;;12.70;8.27;;;;;;;16.93;100.00;96763.16;5074187;28;20032;-66
2022/08/29 00:45:10;;;;;;;15.95;9.02;;;;;;;16.95;100.00;96758.00;5074488;28;20052;-67
2022/08/29 00:47:43;;;;;;;11.23;8.20;;;;;;;16.96;100.00;96771.44;5072872;28;20062;-66
2022/08/29 00:50:18;;;;;;;9.88;7.38;;;;;;;17.01;100.00;96767.41;5074181;28;20112;-66
2022/08/29 00:52:46;;;;;;;13.77;8.50;;;;;;;16.92;100.00;96761.56;5073980;28;20107;-67
2022/08/29 00:55:18;;;;;;;11.32;7.80;;;;;;;16.97;100.00;96759.16;5061578;28;20033;-66
2022/08/29 00:57:51;;;;;;;11.35;7.93;;;;;;;16.96;100.00;96754.81;5070506;28;20036;-65
2022/08/29 01:00:17;;;;;;;13.30;7.15;;;;;;;16.91;100.00;96760.00;5074330;28;20025;-66
2022/08/29 01:02:43;;;;;;;10.43;7.97;;;;;;;16.88;100.00;96767.13;5064573;28;20029;-66
2022/08/29 01:05:11;;;;;;;12.05;8.45;;;;;;;16.87;100.00;96767.53;5068724;28;20031;-66
2022/08/29 01:07:38;;;;;;;12.88;8.38;;;;;;;16.81;100.00;96769.91;5073746;28;20432;-66
2022/08/29 01:10:05;;;;;;;16.85;8.52;;;;;;;16.82;100.00;96758.44;5078053;28;20025;-66
2022/08/29 01:12:34;;;;;;;13.15;8.88;;;;;;;16.79;100.00;96761.25;5080571;28;20055;-65
2022/08/29 01:15:08;;;;;;;16.13;8.93;;;;;;;16.78;100.00;96765.19;5071772;28;20112;-66
2022/08/29 01:17:41;;;;;;;11.15;8.80;;;;;;;16.77;100.00;96767.16;5068488;28;20017;-66
2022/08/29 01:20:33;;;;;;;12.70;8.60;;;;;;;16.76;100.00;96776.69;5073353;28;20028;-64
2022/08/29 01:23:01;;;;;;;15.63;8.80;;;;;;;16.67;100.00;96772.78;5071913;28;20115;-65
2022/08/29 01:25:32;;;;;;;12.00;8.48;;;;;;;16.66;100.00;96768.44;5072479;28;20047;-63
2022/08/29 01:28:24;;;;;;;14.27;8.80;;;;;;;16.62;100.00;96766.50;5073300;28;20112;-66
2022/08/29 01:30:59;;;;;;;15.20;9.48;;;;;;;16.57;100.00;96764.16;5065976;28;20032;-66
2022/08/29 01:33:25;;;;;;;11.32;8.65;;;;;;;16.50;100.00;96766.97;5073043;28;20040;-66
2022/08/29 01:35:50;;;;;;;14.95;10.60;;;;;;;16.45;100.00;96761.84;5072659;28;20033;-67
2022/08/29 01:38:26;;;;;;;14.10;10.15;;;;;;;16.41;100.00;96761.09;5072846;28;20039;-66
2022/08/29 01:40:57;;;;;;;14.32;9.73;;;;;;;16.39;100.00;96758.72;5062176;28;20037;-65
2022/08/29 01:43:24;;;;;;;16.60;9.15;;;;;;;16.36;100.00;96762.28;5072754;28;20028;-65
2022/08/29 01:45:49;;;;;;;15.23;9.52;;;;;;;16.35;100.00;96760.72;5073421;28;20028;-66
2022/08/29 01:48:16;;;;;;;12.63;9.55;;;;;;;16.33;100.00;96762.31;5073057;28;20035;-66
2022/08/29 01:50:41;;;;;;;13.68;9.13;;;;;;;16.34;100.00;96764.66;5073017;28;20098;-65
2022/08/29 01:53:07;;;;;;;15.50;8.88;;;;;;;16.38;100.00;96772.94;5069093;28;20024;-66
2022/08/29 01:55:33;;;;;;;12.95;9.70;;;;;;;16.41;100.00;96767.41;5072419;28;20523;-66
2022/08/29 01:57:58;;;;;;;16.73;10.32;;;;;;;16.32;100.00;96766.28;5072698;28;20036;-66
2022/08/29 02:00:24;;;;;;;15.38;10.48;;;;;;;16.26;100.00;96768.69;5072899;28;20055;-66
2022/08/29 02:02:49;;;;;;;14.68;10.23;;;;;;;16.28;100.00;96762.72;5072606;28;20036;-67
2022/08/29 02:05:15;;;;;;;16.00;9.20;;;;;;;16.20;100.00;96765.53;5068513;28;20036;-66
2022/08/29 02:07:40;;;;;;;12.85;9.55;;;;;;;16.18;100.00;96765.13;5075687;28;20048;-66
2022/08/29 02:10:06;;;;;;;16.23;10.20;;;;;;;16.16;100.00;96763.97;5068782;28;20086;-67
2022/08/29 02:12:32;;;;;;;16.30;10.25;;;;;;;16.16;100.00;96763.97;5072332;28;20050;-67
2022/08/29 02:14:58;;;;;;;19.00;9.85;;;;;;;16.15;100.00;96765.16;5072725;28;20111;-66
2022/08/29 02:17:24;;;;;;;16.42;9.80;;;;;;;16.07;100.00;96764.41;5070825;28;20024;-67
2022/08/29 02:19:50;;;;;;;14.13;10.63;;;;;;;16.00;100.00;96765.22;5071452;28;20034;-66
2022/08/29 02:22:16;;;;;;;13.25;10.30;;;;;;;15.94;100.00;96772.34;5079808;28;20052;-67
2022/08/29 02:24:41;;;;;;;16.40;10.77;;;;;;;15.93;100.00;96770.78;5072218;28;20104;-66
2022/08/29 02:27:08;;;;;;;15.25;10.82;;;;;;;15.88;100.00;96773.16;5071989;28;20394;-65
2022/08/29 02:29:33;;;;;;;17.25;10.32;;;;;;;15.85;100.00;96774.75;5072003;28;20081;-66
2022/08/29 02:31:59;;;;;;;16.58;10.90;;;;;;;15.84;100.00;96773.94;5068494;28;20029;-66
2022/08/29 02:34:29;;;;;;;17.25;10.80;;;;;;;15.84;100.00;96779.47;5071735;28;20028;-66
2022/08/29 02:36:57;;;;;;;14.73;10.45;;;;;;;15.78;100.00;96777.53;5072192;28;20046;-65
2022/08/29 02:39:22;;;;;;;16.92;10.73;;;;;;;15.74;100.00;96782.25;5068612;28;20038;-66
2022/08/29 02:41:48;;;;;;;15.00;10.60;;;;;;;15.70;100.00;96782.28;5072561;28;20115;-65
2022/08/29 02:44:14;;;;;;;15.02;10.82;;;;;;;15.70;100.00;96779.50;5070872;28;20488;-65
2022/08/29 02:46:39;;;;;;;16.38;10.40;;;;;;;15.77;100.00;96779.53;5069196;28;20028;-65
2022/08/29 02:49:05;;;;;;;14.25;9.45;;;;;;;15.80;100.00;96775.94;5071751;28;20029;-66
2022/08/29 02:51:31;;;;;;;16.65;9.23;;;;;;;15.79;100.00;96779.91;5071741;28;20058;-66
2022/08/29 02:53:58;;;;;;;18.63;9.38;;;;;;;15.67;100.00;96778.31;5067118;28;20139;-66
2022/08/29 02:56:24;;;;;;;16.27;9.25;;;;;;;15.64;100.00;96776.34;5071307;28;20085;-66
2022/08/29 02:58:49;;;;;;;15.63;9.95;;;;;;;15.61;100.00;96777.16;5071881;28;20111;-66
2022/08/29 03:01:16;;;;;;;14.13;9.55;;;;;;;15.51;100.00;96777.97;5071695;28;20085;-66
2022/08/29 03:03:41;;;;;;;12.07;8.73;;;;;;;15.53;100.00;96774.81;5065259;28;20031;-66
2022/08/29 03:06:07;;;;;;;13.18;8.88;;;;;;;15.62;100.00;96781.47;5070892;28;20040;-66
2022/08/29 03:08:33;;;;;;;14.93;9.95;;;;;;;15.72;100.00;96785.44;5064595;28;20024;-65
2022/08/29 03:10:58;;;;;;;14.88;8.52;;;;;;;15.78;100.00;96789.38;5071301;28;20478;-65
2022/08/29 03:13:24;;;;;;;13.60;9.43;;;;;;;15.80;100.00;96781.47;5071205;28;20511;-66
2022/08/29 03:15:49;;;;;;;17.10;10.00;;;;;;;15.67;100.00;96783.84;5071078;28;20422;-66
2022/08/29 03:18:16;;;;;;;14.00;8.90;;;;;;;15.43;100.00;96781.91;5066013;28;20539;-66
2022/08/29 03:20:42;;;;;;;15.52;9.25;;;;;;;15.36;100.00;96781.91;5075939;28;20384;-66
2022/08/29 03:23:08;;;;;;;12.90;9.50;;;;;;;15.38;100.00;96780.34;5068164;28;20033;-65
2022/08/29 03:25:34;;;;;;;13.65;8.60;;;;;;;15.31;100.00;96772.09;5071138;28;20028;-65
2022/08/29 03:28:00;;;;;;;13.20;9.20;;;;;;;15.14;100.00;96775.63;5071085;28;20036;-66
2022/08/29 03:30:27;;;;;;;15.73;8.95;;;;;;;15.04;100.00;96780.75;5069642;28;20082;-65
2022/08/29 03:32:53;;;;;;;11.05;8.38;;;;;;;14.96;100.00;96781.94;5068738;28;20032;-64
2022/08/29 03:35:19;;;;;;;11.10;8.20;;;;;;;14.81;100.00;96783.13;5070962;28;20040;-64
2022/08/29 03:37:45;;;;;;;16.48;9.00;;;;;;;14.70;100.00;96775.63;5063599;28;20016;-65
2022/08/29 03:40:12;;;;;;;15.35;9.38;;;;;;;14.45;100.00;96778.28;5071348;28;20085;-65
2022/08/29 03:42:38;;;;;;;13.63;9.45;;;;;;;14.13;100.00;96770.75;5072253;28;20031;-65
2022/08/29 03:45:06;;;;;;;16.10;9.85;;;;;;;14.04;100.00;96764.00;5070897;28;20040;-65
2022/08/29 03:47:33;;;;;;;11.73;9.27;;;;;;;14.09;100.00;96769.16;5073511;28;20036;-66
2022/08/29 03:49:59;;;;;;;18.85;10.77;;;;;;;14.00;100.00;96769.50;5074771;28;20610;-66
2022/08/29 03:52:24;;;;;;;15.60;10.40;;;;;;;13.93;100.00;96769.47;5067604;28;20041;-66
2022/08/29 03:54:50;;;;;;;14.75;11.43;;;;;;;13.86;100.00;96770.22;5075163;28;20029;-66
2022/08/29 03:57:15;;;;;;;23.42;12.75;;;;;;;13.85;100.00;96767.88;5075116;28;20143;-66
2022/08/29 03:59:41;;;;;;;17.15;12.48;;;;;;;13.86;100.00;96767.47;5079127;28;20028;-68
2022/08/29 04:02:07;;;;;;;18.30;11.40;;;;;;;13.89;100.00;96766.69;5081292;28;20069;-66
2022/08/29 04:07:16;;;;;;;17.08;11.68;;;;;;;14.11;100.00;96758.53;5067085;28;20027;-65
2022/08/29 04:09:42;;;;;;;16.33;11.40;;;;;;;14.10;100.00;96771.50;5074751;28;20032;-67
2022/08/29 04:12:10;;;;;;;18.88;12.77;;;;;;;14.09;100.00;96775.44;5074501;28;20109;-67
2022/08/29 04:14:36;;;;;;;14.40;10.70;;;;;;;14.12;100.00;96774.66;5074727;28;20444;-65
2022/08/29 04:17:03;;;;;;;14.88;9.73;;;;;;;14.18;100.00;96775.06;5074413;28;20382;-66
2022/08/29 04:19:29;;;;;;;18.65;10.38;;;;;;;14.24;100.00;96779.03;5069553;28;20028;-65
2022/08/29 04:21:56;;;;;;;14.82;10.80;;;;;;;14.27;100.00;96774.72;5064687;28;20045;-64
2022/08/29 04:24:22;;;;;;;21.55;11.68;;;;;;;14.35;100.00;96779.06;5074221;28;20404;-65
2022/08/29 04:26:47;;;;;;;16.35;10.15;;;;;;;14.43;100.00;96777.13;5073978;28;20516;-66
2022/08/29 04:29:12;;;;;;;16.40;9.15;;;;;;;14.49;100.00;96789.31;5074212;28;20064;-64
2022/08/29 04:31:39;;;;;;;11.63;8.57;;;;;;;14.46;100.00;96787.38;5074469;28;20029;-67
2022/08/29 04:34:07;;;;;;;12.30;8.27;;;;;;;14.50;100.00;96794.44;5068323;28;20048;-67
2022/08/29 04:36:34;;;;;;;13.27;8.02;;;;;;;14.53;100.00;96796.44;5074003;28;20032;-67
2022/08/29 04:39:00;;;;;;;12.93;8.05;;;;;;;14.53;100.00;96798.38;5074068;28;20430;-65
2022/08/29 04:41:25;;;;;;;13.30;8.18;;;;;;;14.42;100.00;96803.09;5073019;28;20079;-66
2022/08/29 04:43:51;;;;;;;16.20;8.60;;;;;;;14.32;100.00;96804.66;5074106;28;20115;-67
2022/08/29 04:46:17;;;;;;;10.32;8.00;;;;;;;14.20;100.00;96810.50;5074116;28;20036;-67
2022/08/29 04:48:42;;;;;;;10.13;7.93;;;;;;;14.30;100.00;96815.28;5070862;28;20028;-68
2022/08/29 04:51:09;;;;;;;14.30;8.20;;;;;;;14.27;100.00;96818.78;5073102;28;20100;-67
2022/08/29 04:53:35;;;;;;;14.63;8.50;;;;;;;14.15;100.00;96814.41;5074673;28;20039;-66
2022/08/29 04:56:07;;;;;;;16.98;9.00;;;;;;;14.13;100.00;96814.81;5073911;28;20044;-67
2022/08/29 04:58:34;;;;;;;13.35;8.95;;;;;;;14.02;100.00;96821.44;5073760;28;20397;-67
2022/08/29 05:01:00;;;;;;;11.27;7.78;;;;;;;14.12;100.00;96826.22;5068382;28;20033;-65
2022/08/29 05:03:25;;;;;;;16.45;8.95;;;;;;;14.10;100.00;96826.59;5074216;28;20021;-67
2022/08/29 05:06:05;;;;;;;15.13;10.60;;;;;;;13.64;100.00;96832.63;5074556;28;20397;-66
2022/08/29 05:08:31;;;;;;;14.35;10.35;;;;;;;13.45;100.00;96828.19;5069902;28;20028;-64
2022/08/29 05:10:56;;;;;;;16.52;11.38;;;;;;;13.33;100.00;96834.00;5073920;28;20041;-64
2022/08/29 05:13:22;;;;;;;17.70;11.95;;;;;;;13.58;100.00;96831.44;5074362;28;20044;-64
2022/08/29 05:15:48;;;;;;;16.58;11.23;;;;;;;13.90;100.00;96833.56;5069629;28;20385;-65
2022/08/29 05:18:18;;;;;;;16.77;10.75;;;;;;;14.42;100.00;96836.97;5068316;28;20779;-64
2022/08/29 05:20:46;;;;;;;15.00;9.95;;;;;;;15.14;100.00;96844.59;5074258;28;20419;-63
2022/08/29 05:23:13;;;;;;;15.32;9.20;;;;;;;15.93;100.00;96839.81;5073609;28;20033;-65
2022/08/29 05:25:39;;;;;;;14.32;9.43;;;;;;;16.30;100.00;96854.34;5074532;28;20032;-64
2022/08/29 05:28:04;;;;;;;11.73;8.50;;;;;;;17.24;100.00;96849.88;5069413;28;20120;-64
2022/08/29 05:30:30;;;;;;;17.33;9.55;;;;;;;18.22;100.00;96847.00;5076653;28;20100;-67
2022/08/29 05:32:56;;;;;;;12.70;8.40;;;;;;;19.49;100.00;96851.19;5085024;28;20059;-67
2022/08/29 05:35:22;;;;;;;13.15;8.52;;;;;;;20.72;100.00;96848.94;5067663;28;20033;-67
2022/08/29 05:37:48;;;;;;;10.52;7.90;;;;;;;20.39;100.00;96849.59;5073942;28;20029;-66
2022/08/29 05:40:13;;;;;;;11.90;7.10;;;;;;;22.08;98.06;96851.28;5079191;28;20413;-65
2022/08/29 05:42:39;;;;;;;10.77;8.00;;;;;;;20.19;100.00;96852.38;5073285;28;20078;-66
2022/08/29 05:45:05;;;;;;;18.27;8.48;;;;;;;19.47;100.00;96853.59;5073086;28;20060;-66
2022/08/29 05:47:32;;;;;;;15.50;7.90;;;;;;;19.95;100.00;96854.41;5071055;28;20162;-66
2022/08/29 05:49:58;;;;;;;9.10;7.03;;;;;;;21.38;100.00;96849.84;5070975;28;20024;-66
2022/08/29 05:52:25;;;;;;;10.43;7.53;;;;;;;22.94;92.58;96852.84;5067939;28;20146;-66
2022/08/29 05:54:51;;;;;;;9.73;6.43;;;;;;;24.50;83.49;96853.69;5072919;28;20025;-66
2022/08/29 05:57:19;;;;;;;12.40;6.97;;;;;;;25.05;80.51;96863.69;5072693;28;20462;-66
2022/08/29 05:59:46;;;;;;;8.75;5.45;;;;;;;26.28;73.85;96861.06;5072465;28;20032;-66
2022/08/29 06:02:11;;;;;;;11.82;5.47;;;;;;;27.17;66.88;96863.91;5072679;28;20657;-67
2022/08/29 06:04:38;;;;;;;10.30;5.80;;;;;;;26.76;67.64;96871.03;5060539;28;20031;-66
2022/08/29 06:07:04;;;;;;;9.15;5.90;;;;;;;28.25;57.26;96871.94;5072816;28;20075;-66
2022/08/29 06:09:30;;;;;;;10.05;5.80;;;;;;;29.03;53.52;96883.13;5072072;28;20397;-65
2022/08/29 06:11:57;;;;;;;9.68;5.05;;;;;;;29.55;51.92;96883.50;5072535;28;20032;-66
2022/08/29 06:14:23;;;;;;;7.50;5.40;;;;;;;29.76;49.99;96886.38;5087254;28;20035;-66
2022/08/29 06:16:49;;;;;;;7.75;5.20;;;;;;;29.98;48.80;96886.69;5068937;28;20139;-66
2022/08/29 06:19:14;;;;;;;10.82;5.40;;;;;;;29.98;48.05;96894.38;5069493;28;20123;-66
2022/08/29 06:21:40;;;;;;;11.15;5.70;;;;;;;29.35;50.03;96882.16;5073223;28;20390;-66
2022/08/29 06:24:06;;;;;;;7.80;5.05;;;;;;;29.66;50.15;96886.47;5072060;28;20133;-66
2022/08/29 06:26:31;;;;;;;10.27;5.60;;;;;;;30.40;47.88;96896.72;5072049;28;20231;-66
2022/08/29 06:28:57;;;;;;;11.45;5.32;;;;;;;30.67;46.85;96897.53;5071948;28;20032;-66
2022/08/29 06:31:27;;;;;;;10.55;5.88;;;;;;;30.48;46.75;96900.66;5072279;28;20043;-66
2022/08/29 06:33:56;;;;;;;9.20;5.57;;;;;;;30.56;46.98;96897.41;5067702;28;20056;-66
2022/08/29 06:36:24;;;;;;;9.77;5.70;;;;;;;30.39;46.33;96889.50;5071741;28;20093;-66
2022/08/29 06:38:50;;;;;;;9.15;5.53;;;;;;;31.00;45.10;96904.84;5070994;28;20021;-65
2022/08/29 06:41:17;;;;;;;7.82;5.63;;;;;;;29.10;51.00;96896.81;5068029;28;20029;-65
2022/08/29 06:43:43;;;;;;;9.40;6.18;;;;;;;25.62;61.88;96892.28;5073149;28;20043;-66
2022/08/29 06:46:22;;;;;;;9.88;6.10;;;;;;;24.72;68.88;96895.72;5071939;28;20090;-66
2022/08/29 06:48:48;;;;;;;;;;;;;;;25.17;67.72;96893.63;5067583;28;20140;-65
2022/08/29 06:51:13;;;;;;;10.27;6.13;;;;;;;26.05;63.62;96898.16;5072201;28;20022;-65
2022/08/29 06:53:39;;;;;;;10.13;6.00;;;;;;;27.83;56.17;96888.44;5066051;28;20083;-67
2022/08/29 06:56:05;;;;;;;11.25;5.60;;;;;;;27.59;56.12;96896.88;5070993;28;20038;-67
2022/08/29 06:58:32;;;;;;;10.25;5.78;;;;;;;27.16;59.54;96893.25;5067953;28;20051;-65
2022/08/29 07:00:58;;;;;;;9.15;5.47;;;;;;;28.15;56.25;96894.53;5074109;28;20485;-66
2022/08/29 07:03:23;;;;;;;7.63;5.38;;;;;;;28.02;56.94;96897.59;5073841;28;20103;-65
2022/08/29 07:05:52;;;;;;;9.10;5.15;;;;;;;25.68;62.77;96898.84;5071666;28;20457;-69
2022/08/29 07:08:18;;;;;;;9.30;5.40;;;;;;;24.50;68.02;96904.06;5063278;28;20033;-68
2022/08/29 07:10:44;;;;;;;11.77;5.55;;;;;;;25.00;67.12;96907.88;5063061;28;20043;-68
2022/08/29 07:13:10;;;;;;;8.60;5.88;;;;;;;24.89;67.16;96904.69;5054726;28;20048;-66
2022/08/29 07:15:35;;;;;;;10.85;5.80;;;;;;;23.69;73.46;96897.25;5063292;28;20051;-67
2022/08/29 07:18:01;;;;;;;7.90;5.70;;;;;;;24.54;69.57;96901.19;5062767;28;20121;-66
2022/08/29 07:20:27;;;;;;;9.75;6.47;;;;;;;22.89;77.14;96898.88;5008914;28;20045;-67
2022/08/29 07:22:52;;;;;;;10.00;6.13;;;;;;;22.77;80.33;96894.81;5064115;28;20422;-66
2022/08/29 07:25:19;;;;;;;8.27;6.15;;;;;;;22.26;80.89;96895.44;5054016;28;20048;-67
2022/08/29 07:27:45;;;;;;;9.35;6.60;;;;;;;22.56;80.18;96896.22;5041716;28;20730;-67
2022/08/29 07:30:15;;;;;;;9.27;6.10;;;;;;;23.17;78.54;96894.47;5055364;28;20455;-67
2022/08/29 07:32:44;;;;;;;14.20;5.40;;;;;;;23.51;76.71;96889.44;5062596;28;20650;-66
2022/08/29 07:35:15;;;;;;;8.30;5.55;;;;;;;22.93;79.90;96885.59;5053476;28;20120;-67
2022/08/29 07:37:41;;;;;;;10.35;6.03;;;;;;;22.94;77.63;96894.75;5040594;28;20508;-67
2022/08/29 07:40:09;;;;;;;11.13;6.07;;;;;;;23.10;80.06;96891.88;5036879;28;20104;-66
2022/08/29 07:42:36;;;;;;;17.75;6.53;;;;;;;22.67;81.25;96893.91;5042294;28;20041;-66
2022/08/29 07:45:04;;;;;;;9.25;6.10;;;;;;;23.12;79.32;96888.66;5043562;28;20522;-66
2022/08/29 07:47:29;;;;;;;8.05;5.43;;;;;;;23.92;75.23;96893.31;5045842;28;20047;-67
2022/08/29 07:49:55;;;;;;;9.23;5.70;;;;;;;22.80;79.23;96885.56;5042484;28;20037;-67
2022/08/29 07:52:21;;;;;;;9.70;5.75;;;;;;;24.39;72.90;96892.50;5034199;28;20037;-67
2022/08/29 07:54:47;;;;;;;10.10;4.90;;;;;;;25.38;67.87;96892.81;5042087;28;20098;-67
2022/08/29 07:57:16;;;;;;;9.70;5.60;;;;;;;25.28;66.73;96894.03;5036644;28;20041;-67
2022/08/29 07:59:41;;;;;;;8.45;5.25;;;;;;;25.80;64.15;96888.72;5041551;28;20095;-67
2022/08/29 08:02:07;;;;;;;8.23;5.13;;;;;;;24.38;71.30;96886.13;5031428;28;20040;-67
2022/08/29 08:04:32;;;;;;;8.57;5.47;;;;;;;25.71;66.08;96892.31;5061322;28;20053;-66
2022/08/29 08:06:58;;;;;;;9.57;4.97;;;;;;;25.90;64.73;96895.16;5059710;28;20083;-66
2022/08/29 08:09:23;;;;;;;10.15;5.85;;;;;;;24.14;70.58;96887.78;5036999;28;20545;-67
2022/08/29 08:11:49;;;;;;;9.93;5.30;;;;;;;26.16;63.77;96897.72;5041318;28;20049;-66
2022/08/29 08:14:14;;;;;;;7.55;4.97;;;;;;;25.93;64.00;96897.84;5035482;28;20041;-67
2022/08/29 08:16:40;;;;;;;10.23;4.65;;;;;;;25.70;67.63;96896.34;5036638;28;20036;-67
2022/08/29 08:19:06;;;;;;;8.07;5.25;;;;;;;25.14;64.97;96895.34;5036275;28;20049;-67
2022/08/29 08:21:32;;;;;;;8.82;4.72;;;;;;;25.52;64.28;96899.13;5041783;28;20037;-67
2022/08/29 08:23:57;;;;;;;6.75;4.20;;;;;;;27.25;60.28;96906.53;5041480;28;20045;-66
2022/08/29 08:26:23;;;;;;;7.18;4.45;;;;;;;27.95;56.58;96905.63;5037335;28;20056;-66
2022/08/29 08:28:49;;;;;;;7.00;4.57;;;;;;;28.13;54.37;96901.91;5046751;28;20054;-67
2022/08/29 08:31:15;;;;;;;7.60;4.50;;;;;;;25.60;63.83;96903.19;5045556;28;20040;-67
2022/08/29 08:33:43;;;;;;;6.07;4.68;;;;;;;25.66;65.75;96904.16;5058183;28;20110;-67
2022/08/29 08:36:27;;;;;;;8.50;4.03;;;;;;;25.27;65.22;96898.06;5054132;28;20032;-66
2022/08/29 08:38:53;;;;;;;6.53;4.40;;;;;;;25.31;67.02;96895.91;5064643;28;20041;-67
2022/08/29 08:41:44;;;;;;;9.35;4.38;;;;;;;25.77;63.26;96900.91;5059567;28;20043;-67
2022/08/29 08:44:25;;;;;;;8.07;4.30;;;;;;;26.64;59.69;96896.03;5050736;28;20036;-67
2022/08/29 08:46:57;;;;;;;7.35;4.28;;;;;;;28.04;57.04;96902.75;5064508;28;20434;-67
2022/08/29 08:49:59;;;;;;;9.88;4.38;;;;;;;29.22;52.97;96901.41;5053222;28;20642;-67
2022/08/29 08:52:47;;;;;;;5.55;3.75;;;;;;;30.31;49.19;96897.63;5038138;28;20064;-67
2022/08/29 08:55:33;;;;;;;7.35;4.18;;;;;;;30.94;48.27;96910.44;5043721;28;20450;-67
2022/08/29 08:58:14;;;;;;;4.93;3.63;;;;;;;30.89;47.62;96911.13;5060861;28;20036;-66
2022/08/29 09:00:45;;;;;;;6.65;4.10;;;;;;;29.85;48.93;96909.59;5061565;28;20047;-67
2022/08/29 09:03:41;;;;;;;8.10;4.40;;;;;;;30.05;49.53;96908.06;5058915;28;20043;-67
2022/08/29 09:06:26;;;;;;;9.23;5.55;;;;;;;29.57;49.95;96916.84;5061929;28;20050;-67
2022/08/29 09:09:06;;;;;;;6.43;3.95;;;;;;;30.21;48.39;96915.22;5068595;28;20040;-67
2022/08/29 09:11:40;;;;;;;5.72;3.88;;;;;;;29.36;50.75;96913.97;5049978;28;20040;-67
2022/08/29 09:14:24;;;;;;;6.28;5.00;;;;;;;29.50;51.18;96918.03;5049662;28;20433;-66
2022/08/29 09:16:55;;;;;;;5.57;4.25;;;;;;;29.23;51.13;96919.16;5042151;28;20490;-67
2022/08/29 09:19:21;;;;;;;8.93;4.80;;;;;;;29.13;52.08;96913.56;5041024;28;20058;-66
2022/08/29 09:21:54;;;;;;;7.97;4.82;;;;;;;28.42;54.24;96916.06;5043619;28;20534;-66
2022/08/29 09:24:39;;;;;;;7.55;4.15;;;;;;;28.02;56.73;96919.34;5031877;28;20033;-66
2022/08/29 09:27:05;;;;;;;5.97;4.10;;;;;;;28.88;53.02;96914.13;5039102;28;20485;-66
2022/08/29 09:29:31;;;;;;;5.10;4.05;;;;;;;29.93;50.71;96924.88;5035364;28;20067;-67
2022/08/29 09:32:13;;;;;;;5.65;4.15;;;;;;;29.68;52.18;96925.50;5044096;28;20390;-67
2022/08/29 09:34:43;;;;;;;7.53;5.05;;;;;;;28.65;54.59;96927.81;5064459;28;20076;-67
2022/08/29 09:37:21;;;;;;;7.25;4.82;;;;;;;28.27;56.47;96929.34;5056307;28;20075;-67
2022/08/29 09:40:01;;;;;;;6.80;4.57;;;;;;;28.64;55.68;96929.06;5052112;28;20521;-67
2022/08/29 09:42:37;;;;;;;;;;;;;;;28.72;55.72;96927.44;5034699;28;20041;-68
2022/08/29 09:45:14;;;;;;;9.55;4.90;;;;;;;29.07;54.98;96934.47;5044551;28;19960;-66
2022/08/29 09:47:39;;;;;;;9.93;5.20;;;;;;;29.31;54.60;96929.53;5044145;28;20041;-68
2022/08/29 09:50:26;;;;;;;7.18;4.50;;;;;;;28.72;54.52;96929.47;5035509;28;20139;-67
2022/08/29 09:52:57;;;;;;;7.60;4.65;;;;;;;28.71;56.89;96925.88;5043840;28;20037;-67
2022/08/29 09:55:29;;;;;;;7.15;4.60;;;;;;;29.53;53.49;96919.88;5038798;28;20788;-68
2022/08/29 09:58:14;;;;;;;7.00;4.93;;;;;;;29.38;53.78;96914.25;5043816;28;20186;-67
2022/08/29 10:00:43;;;;;;;6.40;4.03;;;;;;;28.95;54.84;96910.94;5045161;28;20037;-67
2022/08/29 10:03:20;;;;;;;8.38;4.78;;;;;;;28.77;54.78;96909.06;5033351;28;20033;-67
2022/08/29 10:05:46;;;;;;;5.97;4.10;;;;;;;29.16;53.32;96914.66;5043971;28;20056;-67
2022/08/29 10:08:55;;;;;;;7.03;4.43;;;;;;;30.22;52.31;96911.91;5059391;28;20040;-69
2022/08/29 10:11:49;;;;;;;7.72;4.88;;;;;;;29.32;54.76;96904.94;5070025;28;20044;-67
2022/08/29 10:14:37;;;;;;;7.90;4.97;;;;;;;28.85;55.65;96898.97;5081008;28;20630;-68
2022/08/29 10:19:58;;;;;;;6.15;4.57;;;;;;;29.77;53.04;96902.06;5034912;28;20280;-67
2022/08/29 10:22:36;;;;;;;7.80;4.90;;;;;;;30.00;52.50;96903.91;5038153;28;20041;-66
2022/08/29 10:25:15;;;;;;;5.88;4.53;;;;;;;29.15;54.97;96899.78;5044112;28;20068;-67
2022/08/29 10:27:52;;;;;;;11.02;4.40;;;;;;;30.39;51.41;96902.88;5062735;28;20076;-67
2022/08/29 10:30:21;;;;;;;6.63;4.32;;;;;;;30.31;50.92;96894.78;5046420;28;20385;-67
2022/08/29 10:33:15;;;;;;;5.10;3.70;;;;;;;30.23;50.77;96899.34;5046378;28;20136;-66
2022/08/29 10:36:09;;;;;;;7.72;4.38;;;;;;;30.31;51.46;96902.50;5052656;28;20045;-67
2022/08/29 10:38:59;;;;;;;5.57;4.15;;;;;;;29.45;53.98;96898.97;5042841;28;20257;-67
2022/08/29 10:41:32;;;;;;;7.80;5.00;;;;;;;30.29;51.71;96896.59;5042373;28;20036;-67
2022/08/29 10:44:24;;;;;;;5.60;4.43;;;;;;;30.17;51.81;96892.81;5053966;28;20077;-67
2022/08/29 10:47:11;;;;;;;6.57;4.70;;;;;;;30.68;50.01;96890.59;5062786;28;20053;-67
2022/08/29 10:49:49;;;;;;;7.10;4.63;;;;;;;30.39;49.71;96891.56;5082516;28;20059;-67
2022/08/29 10:52:20;;;;;;;5.85;3.80;;;;;;;29.69;54.08;96884.69;5076738;28;20047;-67
2022/08/29 10:55:17;;;;;;;10.10;4.65;;;;;;;29.14;55.32;96888.97;5082527;28;20043;-66
2022/08/29 10:58:13;;;;;;;6.53;3.90;;;;;;;28.71;56.56;96885.66;5080416;28;20614;-67
2022/08/29 11:00:46;;;;;;;8.13;5.13;;;;;;;28.84;56.58;96888.97;5032229;28;20094;-67
2022/08/29 11:03:34;;;;;;;10.75;4.78;;;;;;;29.08;55.60;96886.06;5032421;28;20052;-67
2022/08/29 11:06:06;;;;;;;5.83;3.93;;;;;;;28.83;56.62;96890.25;5042340;28;20140;-67
2022/08/29 11:08:43;;;;;;;7.20;3.88;;;;;;;28.87;57.51;96881.59;5063077;28;20136;-66
2022/08/29 11:11:08;;;;;;;5.78;3.78;;;;;;;28.50;58.02;96879.06;5043525;28;20065;-66
2022/08/29 11:13:37;;;;;;;6.97;4.88;;;;;;;28.48;58.04;96878.78;5047457;28;20091;-67
2022/08/29 11:16:30;;;;;;;5.88;4.70;;;;;;;28.06;57.62;96883.34;5039353;28;20055;-66
2022/08/29 11:19:11;;;;;;;8.50;4.97;;;;;;;27.43;61.09;96875.53;5040739;28;20131;-68
2022/08/29 11:21:47;;;;;;;6.38;4.55;;;;;;;27.50;59.94;96876.47;5052807;28;20155;-66
2022/08/29 11:24:15;;;;;;;9.15;4.45;;;;;;;27.61;61.57;96871.84;5034441;28;20044;-69
2022/08/29 11:26:51;;;;;;;7.72;4.55;;;;;;;27.81;61.48;96864.88;5058186;28;20136;-68
2022/08/29 11:29:19;;;;;;;7.40;4.80;;;;;;;28.00;59.91;96866.34;5050396;28;20044;-68
2022/08/29 11:32:03;;;;;;;6.60;3.90;;;;;;;28.31;58.48;96870.03;5054219;28;20041;-68
2022/08/29 11:35:05;;;;;;;7.60;4.20;;;;;;;27.96;59.66;96867.75;5034183;28;20040;-67
2022/08/29 11:38:01;;;;;;;7.40;4.10;;;;;;;28.16;59.75;96870.75;5048667;28;20113;-67
2022/08/29 11:40:34;;;;;;;8.15;4.45;;;;;;;28.47;57.30;96866.75;5020284;28;20044;-67
2022/08/29 11:43:01;;;;;;;7.88;3.80;;;;;;;28.18;58.89;96861.81;5033183;28;20044;-67